createdAt,value
2023-01-21T00:01:10.223Z,32.23
2023-01-21T00:03:38.061Z,26.90
2023-01-21T00:06:05.921Z,23.07
2023-01-21T00:08:33.215Z,33.17
2023-01-21T00:11:14.551Z,25.10
2023-01-21T00:13:43.460Z,25.80
2023-01-21T00:16:12.036Z,26.73
2023-01-21T00:18:39.179Z,25.63
2023-01-21T00:21:06.390Z,24.93
2023-01-21T00:23:33.597Z,26.33
2023-01-21T00:26:05.941Z,28.97
2023-01-21T00:28:35.650Z,29.83
2023-01-21T00:31:06.634Z,26.37
2023-01-21T00:33:34.775Z,30.93
2023-01-21T00:36:14.333Z,27.03
2023-01-21T00:38:41.545Z,25.17
2023-01-21T00:41:13.697Z,27.33
2023-01-21T00:43:44.385Z,26.20
2023-01-21T00:46:11.929Z,25.03
2023-01-21T00:48:40.448Z,24.73
2023-01-21T00:51:08.011Z,23.70
2023-01-21T00:53:38.361Z,22.93
2023-01-21T00:56:08.463Z,24.97
2023-01-21T00:58:36.448Z,24.27
2023-01-21T01:01:08.078Z,24.97
2023-01-21T01:03:36.762Z,23.50
2023-01-21T01:06:07.513Z,25.77
2023-01-21T01:08:34.692Z,23.50
2023-01-21T01:11:02.541Z,28.33
2023-01-21T01:13:30.521Z,22.40
2023-01-21T01:15:58.774Z,25.73
2023-01-21T01:18:27.514Z,28.03
2023-01-21T01:20:54.700Z,25.10
2023-01-21T01:23:22.070Z,24.37
2023-01-21T01:26:07.203Z,29.87
2023-01-21T01:28:34.862Z,27.43
2023-01-21T01:31:06.277Z,24.63
2023-01-21T01:33:34.272Z,23.97
2023-01-21T01:36:08.779Z,26.03
2023-01-21T01:38:39.451Z,29.17
2023-01-21T01:41:07.239Z,28.00
2023-01-21T01:43:54.369Z,31.47
2023-01-21T01:46:23.697Z,27.33
2023-01-21T01:49:13.433Z,24.50
2023-01-21T01:51:58.943Z,24.90
2023-01-21T01:54:36.622Z,24.33
2023-01-21T01:57:09.040Z,22.73
2023-01-21T01:59:36.918Z,24.80
2023-01-21T02:02:14.102Z,28.40
2023-01-21T02:05:08.278Z,23.80
2023-01-21T02:07:44.495Z,26.37
2023-01-21T02:10:15.187Z,21.33
2023-01-21T02:12:44.112Z,23.10
2023-01-21T02:15:12.245Z,25.90
2023-01-21T02:18:02.930Z,25.20
2023-01-21T02:20:41.715Z,24.40
2023-01-21T02:23:27.213Z,23.20
2023-01-21T02:26:25.296Z,23.52
2023-01-21T02:29:41.153Z,29.30
2023-01-21T02:33:03.806Z,23.93
2023-01-21T02:36:04.547Z,23.80
2023-01-21T02:38:45.991Z,20.90
2023-01-21T02:41:36.776Z,25.17
2023-01-21T02:44:21.190Z,24.80
2023-01-21T02:47:33.268Z,24.13
2023-01-21T02:50:16.240Z,23.77
2023-01-21T02:52:43.439Z,25.67
2023-01-21T02:55:16.757Z,19.43
2023-01-21T02:57:54.873Z,19.80
2023-01-21T03:00:37.417Z,23.27
2023-01-21T03:03:34.936Z,20.80
2023-01-21T03:06:49.014Z,21.17
2023-01-21T03:09:25.263Z,20.83
2023-01-21T03:12:30.580Z,21.27
2023-01-21T03:15:42.906Z,20.87
2023-01-21T03:18:31.172Z,20.93
2023-01-21T03:21:08.984Z,21.23
2023-01-21T03:23:41.394Z,21.63
2023-01-21T03:26:12.415Z,20.03
2023-01-21T03:28:48.903Z,18.23
2023-01-21T03:31:25.778Z,23.07
2023-01-21T03:33:56.472Z,18.30
2023-01-21T03:36:40.703Z,21.97
2023-01-21T03:39:40.773Z,18.17
2023-01-21T03:42:09.281Z,21.97
2023-01-21T03:44:38.411Z,20.10
2023-01-21T03:47:35.604Z,19.43
2023-01-21T03:50:26.109Z,21.57
2023-01-21T03:52:53.503Z,20.17
2023-01-21T03:55:21.592Z,24.53
2023-01-21T03:57:48.731Z,20.73
2023-01-21T04:00:16.933Z,18.57
2023-01-21T04:02:44.485Z,20.00
2023-01-21T04:05:11.735Z,17.23
2023-01-21T04:07:38.846Z,21.47
2023-01-21T04:10:09.913Z,24.20
2023-01-21T04:12:37.102Z,20.07
2023-01-21T04:15:05.647Z,22.33
2023-01-21T04:17:36.226Z,22.97
2023-01-21T04:20:03.630Z,25.17
2023-01-21T04:22:30.775Z,21.77
2023-01-21T04:24:57.901Z,23.60
2023-01-21T04:27:28.482Z,21.83
2023-01-21T04:29:55.532Z,21.90
2023-01-21T04:32:22.876Z,20.27
2023-01-21T04:34:50.025Z,21.63
2023-01-21T04:37:17.249Z,21.90
2023-01-21T04:39:44.357Z,24.70
2023-01-21T04:42:11.553Z,22.27
2023-01-21T04:44:38.712Z,21.30
2023-01-21T04:47:05.855Z,24.47
2023-01-21T04:49:32.963Z,27.20
2023-01-21T04:52:00.064Z,20.97
2023-01-21T04:54:27.151Z,21.13
2023-01-21T04:56:54.263Z,21.23
2023-01-21T04:59:21.513Z,20.40
2023-01-21T05:01:48.595Z,18.63
2023-01-21T05:04:15.880Z,22.27
2023-01-21T05:06:43.175Z,21.80
2023-01-21T05:09:10.292Z,18.50
2023-01-21T05:11:37.628Z,22.47
2023-01-21T05:14:04.871Z,21.57
2023-01-21T05:16:31.997Z,22.13
2023-01-21T05:18:59.190Z,20.13
2023-01-21T05:21:26.419Z,15.50
2023-01-21T05:23:53.587Z,19.03
2023-01-21T05:26:20.714Z,17.50
2023-01-21T05:28:47.867Z,19.40
2023-01-21T05:31:15.055Z,18.93
2023-01-21T05:33:44.093Z,17.77
2023-01-21T05:36:11.260Z,18.60
2023-01-21T05:38:38.537Z,20.13
2023-01-21T05:41:05.935Z,16.63
2023-01-21T05:43:33.318Z,16.10
2023-01-21T05:46:01.161Z,15.53
2023-01-21T05:48:29.605Z,18.27
2023-01-21T05:50:58.478Z,21.47
2023-01-21T05:53:26.643Z,19.00
2023-01-21T05:55:55.420Z,21.53
2023-01-21T05:58:26.053Z,17.90
2023-01-21T06:00:58.643Z,17.43
2023-01-21T06:03:26.510Z,19.27
2023-01-21T06:05:53.944Z,17.13
2023-01-21T06:08:21.535Z,17.90
2023-01-21T06:10:48.698Z,17.90
2023-01-21T06:13:16.732Z,20.93
2023-01-21T06:15:43.917Z,17.83
2023-01-21T06:18:11.168Z,14.23
2023-01-21T06:20:38.372Z,18.43
2023-01-21T06:23:05.687Z,14.80
2023-01-21T06:25:33.636Z,17.43
2023-01-21T06:28:01.376Z,17.03
2023-01-21T06:30:28.756Z,15.23
2023-01-21T06:32:56.006Z,14.97
2023-01-21T06:35:23.744Z,16.50
2023-01-21T06:37:50.940Z,17.57
2023-01-21T06:40:18.554Z,17.20
2023-01-21T06:42:47.731Z,16.47
2023-01-21T06:45:16.009Z,12.93
2023-01-21T06:47:44.876Z,14.77
2023-01-21T06:50:15.717Z,15.43
2023-01-21T06:52:45.811Z,23.53
2023-01-21T06:55:14.415Z,15.00
2023-01-21T06:57:42.489Z,13.97
2023-01-21T07:00:11.977Z,15.43
2023-01-21T07:02:39.151Z,13.33
2023-01-21T07:05:07.171Z,12.67
2023-01-21T07:07:34.326Z,15.40
2023-01-21T07:10:05.291Z,17.73
2023-01-21T07:12:32.433Z,14.13
2023-01-21T07:14:59.579Z,15.10
2023-01-21T07:17:26.976Z,13.80
2023-01-21T07:19:54.108Z,10.60
2023-01-21T07:22:21.403Z,14.87
2023-01-21T07:24:48.781Z,14.90
2023-01-21T07:27:16.269Z,13.70
2023-01-21T07:29:43.702Z,13.93
2023-01-21T07:32:10.865Z,12.50
2023-01-21T07:34:38.018Z,16.10
2023-01-21T07:37:05.241Z,12.50
2023-01-21T07:39:32.455Z,14.60
2023-01-21T07:41:59.638Z,12.83
2023-01-21T07:44:27.024Z,12.43
2023-01-21T07:46:54.246Z,11.23
2023-01-21T07:49:21.525Z,13.47
2023-01-21T07:51:49.001Z,12.20
2023-01-21T07:54:16.351Z,13.70
2023-01-21T07:56:46.572Z,10.67
2023-01-21T07:59:14.165Z,12.07
2023-01-21T08:01:41.727Z,11.03
2023-01-21T08:04:09.890Z,13.47
2023-01-21T08:06:38.032Z,12.10
2023-01-21T08:09:05.419Z,10.87
2023-01-21T08:11:32.675Z,12.53
2023-01-21T08:13:59.844Z,14.53
2023-01-21T08:16:27.349Z,13.30
2023-01-21T08:18:54.697Z,13.60
2023-01-21T08:21:22.009Z,10.70
2023-01-21T08:23:49.099Z,12.73
2023-01-21T08:26:16.327Z,13.07
2023-01-21T08:28:43.555Z,11.17
2023-01-21T08:31:13.336Z,12.80
2023-01-21T08:33:40.696Z,14.47
2023-01-21T08:36:08.960Z,13.03
2023-01-21T08:38:36.886Z,12.90
2023-01-21T08:41:04.453Z,9.73
2023-01-21T08:43:31.572Z,12.43
2023-01-21T08:46:01.567Z,9.87
2023-01-21T08:48:30.037Z,11.97
2023-01-21T08:51:00.933Z,13.10
2023-01-21T08:53:28.280Z,15.03
2023-01-21T08:56:05.373Z,12.57
2023-01-21T08:58:33.432Z,11.60
2023-01-21T09:01:09.115Z,10.63
2023-01-21T09:03:37.204Z,12.38
2023-01-21T09:06:06.155Z,14.23
2023-01-21T09:08:33.470Z,14.90
2023-01-21T09:11:02.364Z,10.47
2023-01-21T09:13:33.591Z,12.03
2023-01-21T09:16:01.445Z,10.93
2023-01-21T09:18:28.841Z,13.63
2023-01-21T09:21:01.897Z,10.87
2023-01-21T09:23:32.213Z,11.80
2023-01-21T09:26:08.588Z,12.23
2023-01-21T09:28:38.801Z,8.17
2023-01-21T09:31:10.121Z,13.20
2023-01-21T09:33:40.677Z,10.03
2023-01-21T09:36:12.548Z,10.40
2023-01-21T09:38:43.241Z,10.60
2023-01-21T09:41:39.505Z,9.10
2023-01-21T09:44:27.391Z,14.98
2023-01-21T09:47:26.861Z,9.27
2023-01-21T09:50:26.272Z,9.47
2023-01-21T09:53:00.027Z,14.23
2023-01-21T09:55:47.662Z,8.40
2023-01-21T09:58:42.184Z,9.80
2023-01-21T10:01:29.078Z,8.43
2023-01-21T10:04:03.419Z,10.37
2023-01-21T10:06:39.381Z,10.13
2023-01-21T10:09:30.852Z,11.40
2023-01-21T10:12:10.499Z,9.70
2023-01-21T10:14:55.100Z,8.47
2023-01-21T10:17:34.535Z,11.93
2023-01-21T10:20:23.881Z,10.33
2023-01-21T10:23:35.875Z,8.27
2023-01-21T10:26:08.761Z,10.30
2023-01-21T10:28:41.906Z,9.47
2023-01-21T10:31:28.936Z,10.93
2023-01-21T10:33:56.726Z,9.67
2023-01-21T10:36:35.139Z,10.23
2023-01-21T10:39:14.427Z,8.77
2023-01-21T10:42:13.080Z,10.13
2023-01-21T10:45:27.736Z,11.73
2023-01-21T10:48:28.854Z,9.85
2023-01-21T10:51:10.334Z,8.83
2023-01-21T10:53:57.593Z,10.20
2023-01-21T10:56:37.213Z,10.77
2023-01-21T10:59:13.840Z,8.43
2023-01-21T11:01:47.394Z,10.07
2023-01-21T11:04:28.123Z,10.20
2023-01-21T11:07:05.568Z,9.37
2023-01-21T11:09:38.597Z,11.53
2023-01-21T11:12:06.113Z,9.63
2023-01-21T11:14:34.644Z,8.90
2023-01-21T11:17:02.095Z,11.00
2023-01-21T11:19:31.338Z,8.23
2023-01-21T11:22:05.591Z,10.67
2023-01-21T11:24:52.750Z,7.87
2023-01-21T11:27:22.228Z,9.03
2023-01-21T11:29:51.036Z,10.53
2023-01-21T11:32:27.702Z,11.03
2023-01-21T11:35:15.798Z,10.00
2023-01-21T11:37:45.876Z,9.93
2023-01-21T11:40:22.217Z,11.90
2023-01-21T11:42:53.481Z,7.47
2023-01-21T11:45:37.090Z,11.90
2023-01-21T11:48:22.734Z,9.73
2023-01-21T11:50:50.061Z,9.57
2023-01-21T11:53:19.394Z,11.00
2023-01-21T11:55:57.175Z,10.10
2023-01-21T11:58:39.540Z,10.87
2023-01-21T12:01:20.522Z,8.73
2023-01-21T12:04:00.043Z,8.37
2023-01-21T12:06:30.819Z,8.37
2023-01-21T12:09:03.949Z,14.93
2023-01-21T12:11:32.793Z,14.23
2023-01-21T12:14:27.632Z,10.93
2023-01-21T12:17:31.435Z,10.57
2023-01-21T12:20:28.361Z,9.97
2023-01-21T12:23:20.491Z,9.50
2023-01-21T12:26:18.786Z,13.37
2023-01-21T12:28:55.042Z,11.10
2023-01-21T12:31:51.189Z,10.13
2023-01-21T12:34:49.718Z,8.48
2023-01-21T12:37:31.320Z,8.53
2023-01-21T12:40:05.707Z,14.87
2023-01-21T12:42:38.450Z,10.25
2023-01-21T12:45:21.984Z,10.37
2023-01-21T12:48:12.646Z,10.57
2023-01-21T12:50:45.520Z,8.87
2023-01-21T12:53:39.234Z,9.17
2023-01-21T12:56:29.122Z,9.63
2023-01-21T12:59:25.209Z,9.67
2023-01-21T13:02:05.820Z,10.10
2023-01-21T13:05:20.746Z,8.00
2023-01-21T13:08:38.760Z,10.70
2023-01-21T13:11:43.445Z,13.20
2023-01-21T13:14:10.498Z,8.87
2023-01-21T13:16:48.572Z,7.23
2023-01-21T13:19:16.622Z,9.93
2023-01-21T13:22:01.683Z,10.00
2023-01-21T13:25:05.479Z,7.43
2023-01-21T13:28:24.698Z,9.57
2023-01-21T13:31:12.591Z,11.43
2023-01-21T13:34:21.080Z,13.10
2023-01-21T13:36:52.101Z,9.37
2023-01-21T13:39:47.004Z,9.43
2023-01-21T13:42:44.468Z,10.57
2023-01-21T13:45:28.913Z,12.00
2023-01-21T13:48:53.142Z,10.37
2023-01-21T13:51:36.748Z,9.67
2023-01-21T13:54:25.289Z,11.63
2023-01-21T13:57:20.909Z,9.97
2023-01-21T14:00:04.819Z,9.53
2023-01-21T14:03:12.946Z,10.83
2023-01-21T14:05:52.799Z,11.53
2023-01-21T14:08:48.567Z,10.20
2023-01-21T14:11:24.171Z,9.13
2023-01-21T14:14:24.253Z,9.77
2023-01-21T14:17:15.441Z,9.23
2023-01-21T14:20:15.324Z,10.97
2023-01-21T14:22:51.876Z,13.10
2023-01-21T14:25:34.084Z,10.17
2023-01-21T14:28:13.630Z,9.88
2023-01-21T14:31:10.685Z,9.57
2023-01-21T14:33:54.327Z,9.67
2023-01-21T14:36:40.692Z,8.93
2023-01-21T14:39:20.135Z,10.33
2023-01-21T14:41:55.109Z,9.57
2023-01-21T14:45:01.328Z,10.60
2023-01-21T14:47:32.749Z,8.73
2023-01-21T14:50:00.459Z,10.80
2023-01-21T14:52:45.117Z,10.30
2023-01-21T14:55:32.987Z,9.60
2023-01-21T14:58:02.066Z,8.10
2023-01-21T15:00:36.238Z,10.27
2023-01-21T15:03:30.282Z,12.00
2023-01-21T15:06:09.129Z,11.23
2023-01-21T15:08:46.239Z,10.67
2023-01-21T15:11:30.828Z,9.53
2023-01-21T15:14:41.942Z,12.07
2023-01-21T15:17:53.319Z,10.23
2023-01-21T15:20:42.630Z,8.00
2023-01-21T15:23:32.087Z,11.90
2023-01-21T15:26:20.151Z,10.43
2023-01-21T15:28:51.031Z,10.43
2023-01-21T15:31:21.635Z,11.13
2023-01-21T15:33:56.749Z,13.70
2023-01-21T15:36:35.696Z,9.73
2023-01-21T15:39:23.508Z,8.27
2023-01-21T15:42:26.677Z,12.83
2023-01-21T15:45:24.204Z,8.20
2023-01-21T15:48:30.126Z,12.23
2023-01-21T15:51:33.173Z,13.37
2023-01-21T15:54:25.155Z,12.43
2023-01-21T15:57:01.737Z,10.30
2023-01-21T15:59:46.705Z,10.30
2023-01-21T16:02:20.533Z,8.53
2023-01-21T16:05:28.979Z,9.27
2023-01-21T16:08:18.410Z,10.33
2023-01-21T16:11:22.573Z,9.73
2023-01-21T16:14:40.165Z,10.53
2023-01-21T16:17:19.695Z,10.50
2023-01-21T16:19:53.837Z,10.33
2023-01-21T16:22:28.146Z,12.00
2023-01-21T16:25:08.359Z,12.23
2023-01-21T16:27:36.628Z,11.63
2023-01-21T16:30:14.865Z,9.50
2023-01-21T16:32:42.977Z,11.60
2023-01-21T16:35:10.997Z,10.80
2023-01-21T16:37:43.511Z,8.37
2023-01-21T16:40:30.384Z,12.60
2023-01-21T16:43:23.025Z,9.53
2023-01-21T16:45:57.256Z,11.93
2023-01-21T16:48:34.193Z,10.63
2023-01-21T16:51:02.966Z,10.67
2023-01-21T16:53:31.687Z,13.47
2023-01-21T16:56:00.823Z,14.17
2023-01-21T16:58:35.682Z,12.40
2023-01-21T17:01:08.858Z,13.43
2023-01-21T17:03:36.806Z,12.07
2023-01-21T17:06:27.708Z,11.43
2023-01-21T17:09:06.108Z,11.97
2023-01-21T17:11:36.741Z,13.97
2023-01-21T17:14:11.408Z,11.93
2023-01-21T17:16:41.821Z,15.03
2023-01-21T17:19:28.164Z,12.77
2023-01-21T17:22:03.816Z,15.53
2023-01-21T17:24:41.598Z,11.02
2023-01-21T17:27:16.126Z,13.63
2023-01-21T17:29:47.131Z,16.73
2023-01-21T17:32:28.365Z,14.33
2023-01-21T17:35:19.027Z,13.33
2023-01-21T17:38:03.970Z,15.00
2023-01-21T17:40:45.689Z,13.97
2023-01-21T17:43:26.582Z,12.93
2023-01-21T17:45:58.592Z,12.73
2023-01-21T17:48:36.772Z,15.27
2023-01-21T17:51:16.600Z,14.77
2023-01-21T17:54:04.076Z,16.47
2023-01-21T17:56:35.361Z,19.33
2023-01-21T17:59:38.411Z,15.27
2023-01-21T18:02:12.804Z,15.43
2023-01-21T18:04:42.990Z,13.70
2023-01-21T18:07:32.857Z,14.83
2023-01-21T18:10:02.800Z,14.77
2023-01-21T18:12:31.425Z,14.70
2023-01-21T18:15:00.102Z,16.27
2023-01-21T18:17:28.592Z,16.03
2023-01-21T18:19:57.932Z,16.07
2023-01-21T18:22:31.926Z,13.90
2023-01-21T18:25:02.979Z,15.43
2023-01-21T18:27:31.496Z,15.50
2023-01-21T18:30:02.444Z,17.07
2023-01-21T18:32:31.780Z,15.30
2023-01-21T18:35:01.583Z,14.37
2023-01-21T18:37:30.091Z,17.27
2023-01-21T18:39:58.028Z,16.17
2023-01-21T18:42:27.150Z,17.70
2023-01-21T18:44:55.642Z,13.50
2023-01-21T18:47:23.487Z,13.50
2023-01-21T18:49:51.667Z,15.27
2023-01-21T18:52:22.553Z,14.90
2023-01-21T18:54:50.723Z,21.67
2023-01-21T18:57:23.156Z,15.83
2023-01-21T18:59:50.840Z,15.33
2023-01-21T19:02:21.128Z,18.43
2023-01-21T19:04:52.824Z,16.57
2023-01-21T19:07:23.923Z,15.40
2023-01-21T19:09:52.619Z,16.00
2023-01-21T19:12:27.958Z,14.87
2023-01-21T19:14:56.165Z,17.90
2023-01-21T19:17:27.643Z,16.87
2023-01-21T19:19:56.913Z,15.33
2023-01-21T19:22:25.431Z,18.37
2023-01-21T19:24:53.936Z,17.47
2023-01-21T19:27:31.106Z,18.20
2023-01-21T19:29:59.467Z,17.77
2023-01-21T19:32:35.510Z,20.13
2023-01-21T19:35:03.948Z,17.47
2023-01-21T19:37:32.737Z,17.67
2023-01-21T19:40:00.862Z,16.90
2023-01-21T19:42:30.082Z,17.37
2023-01-21T19:44:59.810Z,20.03
2023-01-21T19:47:30.635Z,18.43
2023-01-21T19:50:00.186Z,22.90
2023-01-21T19:52:28.733Z,16.60
2023-01-21T19:54:57.076Z,17.47
2023-01-21T19:57:26.279Z,20.00
2023-01-21T19:59:54.780Z,19.20
2023-01-21T20:02:23.289Z,18.63
2023-01-21T20:04:52.329Z,18.03
2023-01-21T20:07:22.537Z,20.83
2023-01-21T20:09:51.244Z,18.97
2023-01-21T20:12:19.873Z,17.83
2023-01-21T20:14:49.921Z,18.00
2023-01-21T20:17:18.372Z,18.20
2023-01-21T20:19:47.415Z,21.23
2023-01-21T20:22:18.246Z,21.80
2023-01-21T20:24:46.778Z,19.80
2023-01-21T20:27:15.607Z,20.17
2023-01-21T20:29:55.720Z,17.90
2023-01-21T20:32:30.685Z,21.97
2023-01-21T20:34:58.773Z,17.77
2023-01-21T20:37:27.185Z,22.67
2023-01-21T20:39:55.634Z,20.40
2023-01-21T20:42:23.640Z,23.03
2023-01-21T20:44:52.159Z,22.70
2023-01-21T20:47:37.686Z,23.47
2023-01-21T20:50:31.782Z,20.97
2023-01-21T20:52:59.977Z,21.07
2023-01-21T20:55:29.529Z,20.60
2023-01-21T20:58:00.005Z,21.17
2023-01-21T21:00:33.197Z,23.90
2023-01-21T21:03:01.326Z,23.27
2023-01-21T21:05:29.793Z,21.97
2023-01-21T21:07:57.654Z,24.93
2023-01-21T21:10:31.941Z,21.47
2023-01-21T21:13:00.109Z,25.77
2023-01-21T21:15:29.966Z,26.30
2023-01-21T21:17:59.312Z,21.87
2023-01-21T21:20:33.806Z,21.77
2023-01-21T21:23:02.686Z,21.40
2023-01-21T21:25:35.226Z,21.27
2023-01-21T21:28:03.109Z,21.13
2023-01-21T21:30:33.904Z,20.10
2023-01-21T21:33:02.196Z,21.93
2023-01-21T21:35:34.278Z,23.23
2023-01-21T21:38:26.264Z,23.83
2023-01-21T21:40:53.890Z,21.77
2023-01-21T21:43:36.041Z,19.10
2023-01-21T21:46:28.140Z,20.37
2023-01-21T21:48:56.190Z,21.80
2023-01-21T21:51:26.927Z,26.00
2023-01-21T21:53:54.871Z,25.03
2023-01-21T21:56:24.217Z,22.17
2023-01-21T21:58:52.250Z,18.23
2023-01-21T22:01:24.143Z,25.23
2023-01-21T22:03:52.404Z,21.03
2023-01-21T22:06:22.428Z,20.63
2023-01-21T22:08:50.189Z,21.97
2023-01-21T22:11:22.511Z,19.23
2023-01-21T22:13:54.347Z,21.13
2023-01-21T22:16:26.324Z,23.47
2023-01-21T22:18:54.743Z,22.07
2023-01-21T22:21:25.557Z,18.47
2023-01-21T22:23:53.322Z,20.87
2023-01-21T22:26:23.662Z,18.40
2023-01-21T22:28:51.448Z,21.47
2023-01-21T22:31:31.681Z,21.87
2023-01-21T22:33:59.724Z,23.67
2023-01-21T22:36:29.845Z,20.23
2023-01-21T22:38:57.506Z,20.10
2023-01-21T22:41:25.593Z,18.73
2023-01-21T22:43:53.989Z,17.10
2023-01-21T22:46:25.301Z,18.63
2023-01-21T22:48:54.297Z,21.93
2023-01-21T22:51:23.194Z,19.87
2023-01-21T22:53:51.832Z,19.13
2023-01-21T22:56:31.500Z,21.83
2023-01-21T22:59:03.033Z,18.93
2023-01-21T23:01:31.654Z,16.97
2023-01-21T23:04:00.244Z,20.70
2023-01-21T23:06:28.198Z,20.73
2023-01-21T23:08:55.823Z,20.87
2023-01-21T23:11:23.036Z,20.50
2023-01-21T23:13:50.288Z,22.50
2023-01-21T23:16:19.450Z,20.33
2023-01-21T23:18:47.268Z,18.97
2023-01-21T23:21:21.427Z,23.10
2023-01-21T23:23:50.062Z,18.40
2023-01-21T23:26:22.661Z,18.13
2023-01-21T23:28:55.912Z,17.40
2023-01-21T23:31:24.546Z,18.13
2023-01-21T23:33:54.323Z,22.30
2023-01-21T23:36:21.630Z,19.53
2023-01-21T23:38:48.815Z,22.47
2023-01-21T23:41:17.256Z,21.07
2023-01-21T23:43:44.537Z,18.00
2023-01-21T23:46:19.948Z,21.13
2023-01-21T23:48:47.606Z,19.13
2023-01-21T23:51:18.883Z,21.17
2023-01-21T23:53:50.673Z,16.13
2023-01-21T23:56:23.476Z,19.40
2023-01-21T23:58:51.629Z,23.90
